Time;durP1;ratioP1;P1;durP2;ratioP2;P2;SDS_P1;SDS_P2;PMS_P1;PMS_P2;Temp;Humidity;BMP_temperature;BMP_pressure;BME280_temperature;BME280_humidity;BME280_pressure;Samples;Min_cycle;Max_cycle;Signal;HPM_P1;HPM_P2
2022/08/23 00:02:08;;;;;;;12.70;8.27;;;18.20;99.90;;;;;;5098105;28;20044;-49
2022/08/23 00:04:41;;;;;;;13.95;8.27;;;18.20;99.90;;;;;;5100667;28;20531;-51
2022/08/23 00:07:12;;;;;;;17.55;9.77;;;18.10;99.90;;;;;;5099058;28;20606;-49
2022/08/23 00:09:38;;;;;;;15.10;10.63;;;18.10;99.90;;;;;;5100108;28;20050;-52
2022/08/23 00:12:09;;;;;;;13.90;10.40;;;18.10;99.90;;;;;;5099771;28;20077;-49
2022/08/23 00:14:37;;;;;;;15.05;10.60;;;18.10;99.90;;;;;;5099410;28;20105;-52
2022/08/23 00:17:05;;;;;;;14.38;10.10;;;18.10;99.90;;;;;;5100150;28;20044;-51
2022/08/23 00:19:31;;;;;;;14.73;10.23;;;18.10;99.90;;;;;;5099249;28;20036;-51
2022/08/23 00:21:57;;;;;;;16.90;11.13;;;18.10;99.90;;;;;;5099960;28;20175;-52
2022/08/23 00:24:24;;;;;;;16.45;10.73;;;18.10;99.90;;;;;;5099040;28;20054;-50
2022/08/23 00:26:52;;;;;;;15.18;10.23;;;18.10;99.90;;;;;;5099980;28;20050;-51
2022/08/23 00:29:19;;;;;;;15.60;10.65;;;18.00;99.90;;;;;;5099601;28;20040;-51
2022/08/23 00:31:45;;;;;;;14.85;10.90;;;18.10;99.90;;;;;;5099028;28;20043;-51
2022/08/23 00:34:11;;;;;;;18.10;10.80;;;18.10;99.90;;;;;;5099825;28;20055;-51
2022/08/23 00:36:38;;;;;;;12.90;10.45;;;18.10;99.90;;;;;;5098824;28;20044;-52
2022/08/23 00:39:04;;;;;;;13.13;11.35;;;18.00;99.90;;;;;;5099660;28;20035;-50
2022/08/23 00:41:31;;;;;;;12.57;10.02;;;18.00;99.90;;;;;;5098414;28;20044;-53
2022/08/23 00:49:38;;;;;;;14.98;9.70;;;17.90;99.90;;;;;;5098489;28;20046;-52
2022/08/23 00:52:12;;;;;;;13.48;9.82;;;17.80;99.90;;;;;;5099283;28;20520;-52
2022/08/23 00:54:40;;;;;;;13.45;9.55;;;17.90;99.90;;;;;;5098316;28;20106;-49
2022/08/23 00:57:11;;;;;;;14.38;10.43;;;17.90;99.90;;;;;;5099168;28;20044;-51
2022/08/23 00:59:36;;;;;;;13.53;10.40;;;17.90;99.90;;;;;;5099494;28;20071;-51
2022/08/23 01:02:03;;;;;;;18.17;10.93;;;17.90;99.90;;;;;;5097285;28;20297;-51
2022/08/23 01:04:36;;;;;;;15.15;11.00;;;17.90;99.90;;;;;;5097659;28;20044;-51
2022/08/23 01:07:09;;;;;;;13.98;10.75;;;17.80;99.90;;;;;;5098212;28;20037;-50
2022/08/23 01:09:37;;;;;;;16.17;11.05;;;17.80;99.90;;;;;;5097602;28;20463;-51
2022/08/23 01:12:18;;;;;;;13.43;11.02;;;17.80;99.90;;;;;;5098620;28;20055;-51
2022/08/23 01:14:54;;;;;;;15.80;12.27;;;17.80;99.90;;;;;;5098054;28;20047;-50
2022/08/23 01:17:36;;;;;;;18.10;12.68;;;17.80;99.90;;;;;;5092793;28;20043;-51
2022/08/23 01:20:10;;;;;;;16.75;12.63;;;17.80;99.90;;;;;;5077554;28;20074;-50
2022/08/23 01:22:48;;;;;;;16.17;12.52;;;17.80;99.90;;;;;;5078528;28;20052;-50
2022/08/23 01:25:17;;;;;;;16.17;12.25;;;17.80;99.90;;;;;;5076879;28;20044;-51
2022/08/23 01:27:45;;;;;;;17.50;12.75;;;17.80;99.90;;;;;;5077627;28;20103;-51
2022/08/23 01:30:13;;;;;;;18.65;13.07;;;17.80;99.90;;;;;;5078641;28;20039;-50
2022/08/23 01:32:44;;;;;;;15.40;12.07;;;17.80;99.90;;;;;;5077329;28;20040;-52
2022/08/23 01:35:10;;;;;;;17.60;12.18;;;17.80;99.90;;;;;;5078579;28;20058;-52
2022/08/23 01:37:36;;;;;;;15.32;12.43;;;17.80;99.90;;;;;;5081288;28;20065;-50
2022/08/23 01:40:03;;;;;;;16.63;13.05;;;17.80;99.90;;;;;;5097960;28;20392;-52
2022/08/23 01:42:29;;;;;;;21.20;13.18;;;17.70;99.90;;;;;;5098198;28;20067;-51
2022/08/23 01:44:55;;;;;;;16.45;12.88;;;17.70;99.90;;;;;;5098216;28;20055;-52
2022/08/23 01:47:21;;;;;;;17.55;13.30;;;17.70;99.90;;;;;;5098767;28;20044;-51
2022/08/23 01:49:47;;;;;;;20.02;13.13;;;17.80;99.90;;;;;;5097502;28;20109;-52
2022/08/23 01:52:14;;;;;;;19.05;13.32;;;17.70;99.90;;;;;;5098453;28;20115;-50
2022/08/23 01:54:40;;;;;;;17.52;13.18;;;17.70;99.90;;;;;;5098058;28;20048;-51
2022/08/23 01:57:07;;;;;;;18.20;13.43;;;17.70;99.90;;;;;;5098096;28;20157;-51
2022/08/23 01:59:33;;;;;;;16.42;13.73;;;17.70;99.90;;;;;;5097503;28;20471;-52
2022/08/23 02:01:58;;;;;;;17.77;13.27;;;17.80;99.90;;;;;;5097944;28;20071;-52
2022/08/23 02:04:24;;;;;;;16.60;13.55;;;17.70;99.90;;;;;;5098731;28;20040;-49
2022/08/23 02:06:50;;;;;;;18.45;12.60;;;17.70;99.90;;;;;;5097420;28;20051;-52
2022/08/23 02:09:16;;;;;;;18.02;13.20;;;17.70;99.90;;;;;;5098441;28;20044;-51
2022/08/23 02:11:42;;;;;;;19.20;13.38;;;17.60;99.90;;;;;;5097775;28;20040;-51
2022/08/23 02:14:15;;;;;;;17.00;13.07;;;17.60;99.90;;;;;;5098181;28;20040;-52
2022/08/23 02:16:45;;;;;;;15.52;12.80;;;17.60;99.90;;;;;;5096030;28;20103;-50
2022/08/23 02:19:13;;;;;;;17.17;12.68;;;17.60;99.90;;;;;;5075696;28;20519;-51
2022/08/23 02:21:40;;;;;;;18.23;11.85;;;17.50;99.90;;;;;;5078138;28;20047;-52
2022/08/23 02:24:13;;;;;;;14.60;12.20;;;17.50;99.90;;;;;;5076831;28;20055;-51
2022/08/23 02:26:43;;;;;;;19.75;13.38;;;17.60;99.90;;;;;;5078205;28;20133;-51
2022/08/23 02:29:09;;;;;;;19.80;12.05;;;17.60;99.90;;;;;;5077553;28;20037;-50
2022/08/23 02:31:34;;;;;;;13.85;11.20;;;17.50;99.90;;;;;;5077714;28;20459;-51
2022/08/23 02:34:00;;;;;;;14.57;11.68;;;17.50;99.90;;;;;;5077806;28;20345;-52
2022/08/23 02:36:27;;;;;;;15.57;11.65;;;17.50;99.90;;;;;;5077141;28;20064;-52
2022/08/23 02:38:54;;;;;;;16.25;12.25;;;17.50;99.90;;;;;;5092062;28;20039;-53
2022/08/23 02:41:20;;;;;;;16.65;12.20;;;17.50;99.90;;;;;;5096968;28;20111;-52
2022/08/23 02:43:46;;;;;;;17.20;11.73;;;17.50;99.90;;;;;;5098060;28;20066;-51
2022/08/23 02:46:12;;;;;;;16.70;12.40;;;17.50;99.90;;;;;;5097411;28;20068;-51
2022/08/23 02:48:38;;;;;;;14.93;10.35;;;17.40;99.90;;;;;;5097553;28;20040;-51
2022/08/23 02:51:06;;;;;;;16.13;10.85;;;17.50;99.90;;;;;;5097836;28;20052;-52
2022/08/23 02:53:33;;;;;;;17.60;11.70;;;17.50;99.90;;;;;;5097050;28;20036;-52
2022/08/23 02:55:59;;;;;;;14.82;10.73;;;17.40;99.90;;;;;;5102010;28;20040;-52
2022/08/23 02:58:25;;;;;;;15.40;11.68;;;17.40;99.90;;;;;;5100789;28;20043;-51
2022/08/23 03:00:52;;;;;;;16.05;11.13;;;17.40;99.90;;;;;;5102141;28;20075;-51
2022/08/23 03:03:18;;;;;;;15.07;11.63;;;17.40;99.90;;;;;;5101152;28;20059;-51
2022/08/23 03:05:44;;;;;;;17.15;11.18;;;17.40;99.90;;;;;;5101209;28;20062;-52
2022/08/23 03:08:10;;;;;;;15.63;11.60;;;17.40;99.90;;;;;;5101576;28;20047;-51
2022/08/23 03:10:40;;;;;;;13.90;11.65;;;17.30;99.90;;;;;;5100345;28;20041;-50
2022/08/23 03:13:06;;;;;;;17.98;11.50;;;17.30;99.90;;;;;;5101758;28;20036;-52
2022/08/23 03:15:32;;;;;;;16.67;11.40;;;17.30;99.90;;;;;;5098891;28;20114;-51
2022/08/23 03:17:58;;;;;;;14.98;12.35;;;17.30;99.90;;;;;;5089802;28;20109;-51
2022/08/23 03:20:24;;;;;;;16.13;11.07;;;17.30;99.90;;;;;;5080137;28;20040;-50
2022/08/23 03:22:49;;;;;;;15.73;12.40;;;17.30;99.90;;;;;;5080815;28;20071;-51
2022/08/23 03:25:15;;;;;;;15.77;11.57;;;17.30;99.90;;;;;;5081164;28;20048;-50
2022/08/23 03:27:42;;;;;;;14.52;11.48;;;17.30;99.90;;;;;;5080111;28;20055;-51
2022/08/23 03:30:08;;;;;;;16.35;11.48;;;17.30;99.90;;;;;;5080851;28;20045;-52
2022/08/23 03:32:34;;;;;;;17.25;11.68;;;17.20;99.90;;;;;;5079731;28;20052;-52
2022/08/23 03:35:00;;;;;;;15.68;11.98;;;17.20;99.90;;;;;;5080746;28;20151;-50
2022/08/23 03:37:25;;;;;;;17.13;12.35;;;17.20;99.90;;;;;;5081967;28;20213;-51
2022/08/23 03:39:51;;;;;;;16.33;12.10;;;17.10;99.90;;;;;;5100525;28;20044;-52
2022/08/23 03:42:18;;;;;;;18.65;12.32;;;17.10;99.90;;;;;;5101141;28;20040;-51
2022/08/23 03:44:43;;;;;;;18.20;11.93;;;17.10;99.90;;;;;;5099990;28;20040;-50
2022/08/23 03:47:09;;;;;;;14.98;11.73;;;17.10;99.90;;;;;;5100611;28;20047;-51
2022/08/23 03:49:36;;;;;;;17.08;12.27;;;17.10;99.90;;;;;;5099867;28;20051;-51
2022/08/23 03:52:02;;;;;;;18.45;13.38;;;17.10;99.90;;;;;;5100542;28;20052;-50
2022/08/23 03:54:28;;;;;;;16.27;12.02;;;17.10;99.90;;;;;;5099458;28;20067;-50
2022/08/23 03:57:03;;;;;;;17.40;12.18;;;17.10;99.90;;;;;;5100470;28;20078;-52
2022/08/23 03:59:32;;;;;;;17.25;12.23;;;17.00;99.90;;;;;;5100523;28;20111;-50
2022/08/23 04:01:58;;;;;;;16.02;12.45;;;17.10;99.90;;;;;;5099534;28;20052;-50
2022/08/23 04:04:24;;;;;;;18.55;12.82;;;17.00;99.90;;;;;;5100706;28;20071;-52
2022/08/23 04:06:50;;;;;;;15.40;12.10;;;17.10;99.90;;;;;;5098556;28;20044;-52
2022/08/23 04:09:16;;;;;;;16.02;11.75;;;17.00;99.90;;;;;;5100252;28;20099;-51
2022/08/23 04:11:43;;;;;;;15.25;11.85;;;17.00;99.90;;;;;;5099568;28;20069;-52
2022/08/23 04:14:08;;;;;;;15.40;11.60;;;16.90;99.90;;;;;;5099814;28;20602;-53
2022/08/23 04:16:39;;;;;;;15.57;11.20;;;17.00;99.90;;;;;;5100130;28;20039;-52
2022/08/23 04:19:06;;;;;;;14.55;11.80;;;16.90;99.90;;;;;;5077630;28;20049;-50
2022/08/23 04:21:34;;;;;;;15.50;10.80;;;16.90;99.90;;;;;;5080047;28;20044;-52
2022/08/23 04:24:00;;;;;;;14.68;11.88;;;16.90;99.90;;;;;;5078757;28;20040;-52
2022/08/23 04:26:25;;;;;;;15.27;11.07;;;16.90;99.90;;;;;;5079827;28;20071;-51
2022/08/23 04:28:51;;;;;;;11.85;9.80;;;16.90;99.90;;;;;;5078959;28;20040;-49
2022/08/23 04:31:19;;;;;;;14.23;9.80;;;16.80;99.90;;;;;;5079436;28;20059;-52
2022/08/23 04:33:45;;;;;;;13.02;9.70;;;16.70;99.90;;;;;;5079578;28;20037;-49
2022/08/23 04:36:11;;;;;;;14.40;10.48;;;16.80;99.90;;;;;;5078890;28;20082;-51
2022/08/23 04:38:37;;;;;;;14.45;11.50;;;16.70;99.90;;;;;;5091672;28;20281;-52
2022/08/23 04:43:47;;;;;;;13.73;11.20;;;16.80;99.90;;;;;;5099506;28;20094;-52
2022/08/23 04:46:14;;;;;;;15.18;10.27;;;16.80;99.90;;;;;;5099130;28;20077;-52
2022/08/23 04:48:41;;;;;;;13.80;10.48;;;16.80;99.90;;;;;;5099343;28;20113;-53
2022/08/23 04:51:07;;;;;;;13.10;10.88;;;16.70;99.90;;;;;;5099667;28;20052;-53
2022/08/23 04:53:34;;;;;;;12.35;10.23;;;16.70;99.90;;;;;;5098374;28;20052;-53
2022/08/23 04:56:01;;;;;;;16.10;11.65;;;16.80;99.90;;;;;;5096369;28;20040;-53
2022/08/23 04:58:28;;;;;;;16.08;10.82;;;16.80;99.90;;;;;;5095141;28;20103;-53
2022/08/23 05:00:54;;;;;;;14.88;10.35;;;16.80;99.90;;;;;;5096545;28;20909;-53
2022/08/23 05:03:20;;;;;;;15.55;11.02;;;16.80;99.90;;;;;;5096687;28;20062;-52
2022/08/23 05:05:46;;;;;;;15.15;11.52;;;16.80;99.90;;;;;;5096771;28;20055;-52
2022/08/23 05:08:11;;;;;;;15.38;12.13;;;16.80;99.90;;;;;;5096594;28;20044;-52
2022/08/23 05:10:37;;;;;;;15.70;11.77;;;16.90;99.90;;;;;;5095798;28;20806;-51
2022/08/23 05:13:03;;;;;;;16.05;11.85;;;16.90;99.90;;;;;;5096894;28;20680;-53
2022/08/23 05:15:29;;;;;;;16.90;11.90;;;16.90;99.90;;;;;;5095793;28;20040;-53
2022/08/23 05:17:54;;;;;;;13.85;10.90;;;17.00;99.90;;;;;;5084877;28;20577;-53
2022/08/23 05:20:20;;;;;;;17.38;11.27;;;17.10;99.90;;;;;;5075578;28;20040;-53
2022/08/23 05:22:46;;;;;;;15.38;10.95;;;17.10;99.90;;;;;;5076099;28;20199;-53
2022/08/23 05:25:12;;;;;;;14.85;11.18;;;17.10;99.90;;;;;;5076560;28;20040;-52
2022/08/23 05:27:38;;;;;;;14.55;11.80;;;17.20;99.90;;;;;;5075288;28;20048;-54
2022/08/23 05:30:05;;;;;;;15.43;11.93;;;17.20;99.90;;;;;;5076495;28;20095;-53
2022/08/23 05:32:31;;;;;;;13.65;11.50;;;17.20;99.90;;;;;;5074700;28;20060;-53
2022/08/23 05:34:57;;;;;;;16.95;12.35;;;17.30;99.90;;;;;;5074882;28;20052;-53
2022/08/23 05:37:23;;;;;;;14.40;11.90;;;17.40;99.90;;;;;;5078930;28;20094;-53
2022/08/23 05:39:48;;;;;;;15.02;11.20;;;17.40;99.90;;;;;;5097895;28;20055;-54
2022/08/23 05:42:15;;;;;;;16.80;12.57;;;17.50;99.90;;;;;;5099623;28;20105;-53
2022/08/23 05:44:43;;;;;;;17.70;12.57;;;17.60;99.90;;;;;;5098681;28;20035;-52
2022/08/23 05:47:11;;;;;;;17.20;12.57;;;17.60;99.90;;;;;;5099601;28;20471;-52
2022/08/23 05:49:38;;;;;;;16.30;12.90;;;17.70;99.90;;;;;;5098427;28;20044;-54
2022/08/23 05:52:05;;;;;;;17.65;13.60;;;17.70;99.90;;;;;;5099248;28;20078;-54
2022/08/23 05:54:31;;;;;;;17.83;12.57;;;17.80;99.90;;;;;;5098346;28;20107;-53
2022/08/23 05:56:57;;;;;;;17.63;12.70;;;17.90;99.90;;;;;;5098882;28;20097;-53
2022/08/23 05:59:23;;;;;;;20.10;13.25;;;18.00;99.90;;;;;;5099077;28;20104;-52
2022/08/23 06:01:48;;;;;;;19.30;13.35;;;18.00;99.90;;;;;;5098338;28;20086;-53
2022/08/23 06:04:14;;;;;;;19.27;14.43;;;18.10;99.90;;;;;;5097932;28;20048;-54
2022/08/23 06:06:41;;;;;;;18.27;14.00;;;18.20;99.90;;;;;;5098289;28;20051;-54
2022/08/23 06:09:10;;;;;;;16.92;14.32;;;18.20;99.90;;;;;;5099041;28;20554;-54
2022/08/23 06:11:36;;;;;;;19.70;15.30;;;18.20;99.90;;;;;;5098326;28;20032;-53
2022/08/23 06:14:05;;;;;;;21.42;14.10;;;18.20;99.90;;;;;;5098951;28;20041;-51
2022/08/23 06:16:34;;;;;;;16.70;13.32;;;18.10;99.90;;;;;;5099034;28;20055;-54
2022/08/23 06:19:01;;;;;;;16.92;13.85;;;18.20;99.90;;;;;;5077739;28;20420;-52
2022/08/23 06:21:28;;;;;;;17.67;13.57;;;18.20;99.90;;;;;;5079015;28;20040;-53
2022/08/23 06:23:54;;;;;;;16.95;13.95;;;18.20;99.90;;;;;;5077899;28;20492;-53
2022/08/23 06:26:32;;;;;;;16.80;13.55;;;18.40;99.90;;;;;;5079104;28;20096;-54
2022/08/23 06:29:02;;;;;;;20.33;14.48;;;18.50;99.90;;;;;;5079448;28;20044;-54
2022/08/23 06:31:44;;;;;;;16.85;12.98;;;18.60;99.90;;;;;;5082455;28;20057;-53
2022/08/23 06:34:12;;;;;;;16.08;13.10;;;18.60;99.90;;;;;;5081806;28;20091;-53
2022/08/23 06:36:38;;;;;;;17.58;12.68;;;18.70;99.90;;;;;;5081838;28;20068;-52
2022/08/23 06:39:06;;;;;;;17.77;13.10;;;18.80;99.90;;;;;;5098598;28;20040;-52
2022/08/23 06:41:32;;;;;;;15.68;13.15;;;18.80;99.90;;;;;;5100775;28;20035;-54
2022/08/23 06:43:58;;;;;;;21.05;12.63;;;18.90;99.90;;;;;;5102396;28;20070;-52
2022/08/23 06:46:26;;;;;;;15.23;11.35;;;18.90;99.90;;;;;;5102778;28;20032;-53
2022/08/23 06:48:52;;;;;;;14.75;12.32;;;18.90;99.90;;;;;;5102123;28;20044;-53
2022/08/23 06:51:22;;;;;;;16.08;12.75;;;19.00;99.90;;;;;;5102924;28;20083;-52
2022/08/23 06:53:48;;;;;;;13.43;11.50;;;19.10;99.90;;;;;;5101779;28;20048;-51
2022/08/23 06:56:13;;;;;;;14.27;11.80;;;19.20;99.90;;;;;;5102860;28;20063;-54
2022/08/23 06:58:39;;;;;;;14.80;11.82;;;19.20;99.90;;;;;;5101374;28;20051;-53
2022/08/23 07:01:22;;;;;;;15.55;12.50;;;19.30;99.90;;;;;;5102276;28;20044;-51
2022/08/23 07:03:54;;;;;;;15.05;11.93;;;19.40;99.90;;;;;;5102391;28;20036;-54
2022/08/23 07:06:22;;;;;;;12.80;10.85;;;19.40;99.90;;;;;;5101582;28;20036;-54
2022/08/23 07:08:47;;;;;;;13.13;10.98;;;19.60;99.90;;;;;;5102509;28;20048;-54
2022/08/23 07:11:13;;;;;;;12.88;11.02;;;19.70;99.90;;;;;;5101284;28;20127;-54
2022/08/23 07:13:39;;;;;;;14.65;10.65;;;19.70;99.90;;;;;;5102604;28;20044;-53
2022/08/23 07:16:05;;;;;;;16.25;10.40;;;19.80;99.90;;;;;;5101966;28;20817;-54
2022/08/23 07:18:31;;;;;;;13.07;10.07;;;20.00;99.90;;;;;;5084322;28;20032;-51
2022/08/23 07:21:02;;;;;;;13.75;10.57;;;20.00;99.90;;;;;;5082265;28;20091;-52
2022/08/23 07:23:33;;;;;;;14.65;10.50;;;20.10;99.90;;;;;;5079840;28;20109;-50
2022/08/23 07:26:00;;;;;;;13.07;9.85;;;20.20;99.90;;;;;;5082090;28;20044;-52
2022/08/23 07:28:27;;;;;;;12.65;9.98;;;20.30;99.90;;;;;;5080887;28;20036;-52
2022/08/23 07:30:54;;;;;;;14.43;10.40;;;20.40;99.90;;;;;;5081814;28;20048;-52
2022/08/23 07:33:20;;;;;;;11.30;9.40;;;20.40;99.90;;;;;;5079955;28;20086;-52
2022/08/23 07:35:50;;;;;;;12.63;9.00;;;20.50;99.90;;;;;;5081512;28;20036;-52
2022/08/23 07:38:17;;;;;;;10.77;8.60;;;20.60;99.90;;;;;;5090691;28;20055;-52
2022/08/23 07:40:43;;;;;;;10.57;8.70;;;20.70;99.90;;;;;;5099394;28;20048;-51
2022/08/23 07:43:10;;;;;;;10.25;7.95;;;20.80;99.90;;;;;;5101985;28;20036;-54
2022/08/23 07:45:37;;;;;;;14.75;8.77;;;20.80;99.90;;;;;;5100828;28;20032;-51
2022/08/23 07:48:03;;;;;;;10.80;8.40;;;20.90;99.90;;;;;;5101721;28;20051;-57
2022/08/23 07:50:29;;;;;;;12.82;8.68;;;21.10;99.90;;;;;;5100179;28;20476;-52
2022/08/23 07:52:55;;;;;;;11.85;8.70;;;21.20;99.90;;;;;;5101329;28;20047;-52
2022/08/23 07:55:21;;;;;;;12.60;9.07;;;21.20;99.90;;;;;;5101509;28;20048;-52
2022/08/23 07:57:47;;;;;;;12.25;8.52;;;21.40;99.90;;;;;;5100655;28;20040;-51
2022/08/23 08:00:13;;;;;;;12.32;8.20;;;21.40;99.90;;;;;;5101591;28;20902;-53
2022/08/23 08:02:40;;;;;;;12.75;9.43;;;21.50;99.90;;;;;;5100480;28;20118;-52
2022/08/23 08:05:06;;;;;;;12.50;8.23;;;21.60;99.90;;;;;;5101327;28;20040;-55
2022/08/23 08:07:31;;;;;;;10.20;7.57;;;21.80;99.90;;;;;;5100762;28;20563;-52
2022/08/23 08:09:57;;;;;;;11.80;7.10;;;21.90;99.90;;;;;;5100811;28;20051;-52
2022/08/23 08:12:23;;;;;;;10.40;8.27;;;22.10;99.90;;;;;;5101563;28;20050;-53
2022/08/23 08:14:49;;;;;;;12.15;7.65;;;22.00;99.90;;;;;;5100367;28;20073;-51
2022/08/23 08:17:17;;;;;;;11.55;7.00;;;22.20;99.90;;;;;;5095658;28;20045;-53
2022/08/23 08:19:43;;;;;;;11.60;7.30;;;22.20;99.90;;;;;;5079849;28;20466;-53
2022/08/23 08:22:09;;;;;;;9.18;6.60;;;22.30;99.90;;;;;;5081012;28;20044;-52
2022/08/23 08:24:34;;;;;;;10.70;7.22;;;22.40;99.90;;;;;;5080166;28;20538;-52
2022/08/23 08:27:00;;;;;;;9.43;7.00;;;22.50;99.90;;;;;;5080063;28;20060;-53
2022/08/23 08:29:26;;;;;;;11.43;6.57;;;22.60;99.90;;;;;;5080781;28;20119;-53
2022/08/23 08:31:52;;;;;;;11.30;6.35;;;22.70;99.90;;;;;;5079448;28;20051;-52
2022/08/23 08:34:17;;;;;;;11.60;6.50;;;22.70;99.90;;;;;;5080900;28;20044;-52
2022/08/23 08:36:45;;;;;;;8.65;6.80;;;22.50;99.90;;;;;;5089774;28;20040;-53
2022/08/23 08:39:14;;;;;;;11.98;7.22;;;22.60;99.90;;;;;;5090285;28;20036;-53
2022/08/23 08:41:53;;;;;;;8.68;6.25;;;22.70;99.90;;;;;;5088615;28;20111;-49
2022/08/23 08:44:37;;;;;;;11.50;7.30;;;22.70;99.90;;;;;;5088327;28;20041;-52
2022/08/23 08:47:25;;;;;;;12.63;6.47;;;22.70;99.90;;;;;;5093703;28;20074;-52
2022/08/23 08:49:59;;;;;;;8.00;5.82;;;22.90;99.90;;;;;;5099440;28;20126;-53
2022/08/23 08:52:53;;;;;;;9.50;5.78;;;23.00;99.90;;;;;;5100141;28;20048;-53
2022/08/23 08:55:26;;;;;;;9.95;6.55;;;23.00;99.90;;;;;;5100275;28;20048;-53
2022/08/23 08:57:53;;;;;;;10.95;6.70;;;23.20;99.90;;;;;;5099433;28;20093;-52
2022/08/23 09:00:25;;;;;;;8.18;5.53;;;23.20;99.90;;;;;;5100579;28;20040;-53
2022/08/23 09:02:51;;;;;;;10.43;5.68;;;23.30;99.90;;;;;;5099359;28;20153;-53
2022/08/23 09:05:24;;;;;;;9.48;5.40;;;23.40;99.90;;;;;;5100066;28;20496;-54
2022/08/23 09:07:58;;;;;;;10.70;6.00;;;23.50;99.90;;;;;;5099960;28;20090;-53
2022/08/23 09:10:48;;;;;;;9.55;5.10;;;23.60;99.90;;;;;;5097950;28;20111;-53
2022/08/23 09:13:31;;;;;;;9.73;4.60;;;23.80;99.90;;;;;;5100057;28;20059;-52
2022/08/23 09:16:15;;;;;;;9.55;4.80;;;23.90;99.90;;;;;;5099160;28;20044;-53
2022/08/23 09:18:41;;;;;;;8.43;4.05;;;24.10;99.90;;;;;;5081915;28;20044;-53
2022/08/23 09:21:08;;;;;;;8.02;3.72;;;24.20;99.90;;;;;;5080173;28;20047;-53
2022/08/23 09:23:42;;;;;;;6.68;3.45;;;24.40;99.90;;;;;;5078854;28;20413;-53
2022/08/23 09:26:17;;;;;;;7.68;3.63;;;24.60;99.90;;;;;;5079934;28;20063;-52
2022/08/23 09:28:44;;;;;;;8.63;4.70;;;24.90;99.90;;;;;;5079020;28;20055;-54
2022/08/23 09:31:10;;;;;;;7.88;4.22;;;24.90;99.90;;;;;;5079409;28;20049;-54
2022/08/23 09:33:42;;;;;;;8.15;4.63;;;24.90;99.90;;;;;;5079508;28;20047;-55
2022/08/23 09:36:20;;;;;;;8.55;4.40;;;25.00;99.90;;;;;;5078767;28;20036;-53
2022/08/23 09:38:57;;;;;;;8.13;3.92;;;25.10;99.90;;;;;;5092982;28;20036;-54
2022/08/23 09:41:37;;;;;;;8.45;3.58;;;25.10;99.90;;;;;;5080363;28;20522;-52
2022/08/23 09:44:12;;;;;;;7.60;3.00;;;25.00;99.90;;;;;;5098857;28;20596;-54
2022/08/23 09:46:40;;;;;;;8.27;3.75;;;25.20;99.90;;;;;;5099746;28;20117;-55
2022/08/23 09:49:35;;;;;;;8.35;3.60;;;25.10;99.90;;;;;;5098464;28;20123;-54
2022/08/23 09:52:34;;;;;;;7.80;3.40;;;25.10;99.90;;;;;;5094347;28;20055;-54
2022/08/23 09:55:10;;;;;;;7.32;4.03;;;25.20;99.90;;;;;;5096048;28;20048;-54
2022/08/23 09:57:36;;;;;;;6.85;4.00;;;25.30;99.90;;;;;;5098526;28;20040;-53
2022/08/23 10:00:23;;;;;;;8.52;3.85;;;25.30;99.90;;;;;;5099464;28;20081;-54
2022/08/23 10:02:50;;;;;;;8.95;3.72;;;25.40;99.90;;;;;;5098445;28;20534;-54
2022/08/23 10:05:36;;;;;;;8.02;4.07;;;25.40;99.90;;;;;;5097633;28;20586;-54
2022/08/23 10:08:03;;;;;;;7.43;3.47;;;25.40;99.90;;;;;;5089386;28;20072;-54
2022/08/23 10:10:45;;;;;;;7.68;3.83;;;25.60;99.90;;;;;;5087119;28;20447;-54
2022/08/23 10:13:12;;;;;;;7.50;3.80;;;25.60;99.90;;;;;;5089682;28;20517;-55
2022/08/23 10:16:12;;;;;;;7.97;3.47;;;25.60;99.90;;;;;;5085697;28;20045;-53
2022/08/23 10:18:47;;;;;;;8.13;3.58;;;25.80;99.90;;;;;;5087011;28;20069;-52
2022/08/23 10:21:42;;;;;;;7.20;4.00;;;25.90;99.90;;;;;;5094499;28;20124;-53
2022/08/23 10:24:33;;;;;;;8.80;3.75;;;25.90;99.90;;;;;;5097881;28;20087;-52
2022/08/23 10:30:10;;;;;;;6.22;3.33;;;26.00;99.90;;;;;;5099302;28;20070;-53
2022/08/23 10:33:11;;;;;;;6.88;3.20;;;26.10;99.90;;;;;;5088269;28;20040;-54
2022/08/23 10:35:50;;;;;;;8.85;4.10;;;26.20;99.90;;;;;;5062205;28;20056;-53
2022/08/23 10:38:28;;;;;;;8.23;4.10;;;26.30;99.90;;;;;;5088151;28;20040;-54
2022/08/23 10:41:23;;;;;;;6.32;3.47;;;26.30;99.90;;;;;;5097889;28;20047;-53
2022/08/23 10:44:14;;;;;;;7.10;3.10;;;26.30;99.90;;;;;;5098741;28;20059;-54
2022/08/23 10:47:01;;;;;;;8.00;3.20;;;26.30;99.60;;;;;;5090202;28;20062;-53
2022/08/23 10:49:27;;;;;;;8.13;3.00;;;26.30;99.90;;;;;;5096517;28;20506;-53
2022/08/23 10:51:56;;;;;;;7.05;3.20;;;26.40;99.90;;;;;;5098701;28;20078;-53
2022/08/23 10:54:34;;;;;;;6.63;3.13;;;26.40;99.90;;;;;;5098099;28;20050;-53
2022/08/23 10:57:02;;;;;;;8.23;3.08;;;26.60;99.90;;;;;;5096869;28;20044;-55
2022/08/23 10:59:30;;;;;;;7.72;3.08;;;26.60;99.90;;;;;;5097833;28;20048;-53
2022/08/23 11:02:15;;;;;;;7.70;2.55;;;26.60;99.90;;;;;;5098136;28;20036;-53
2022/08/23 11:04:47;;;;;;;7.38;3.00;;;26.70;99.20;;;;;;5098774;28;20093;-54
2022/08/23 11:07:26;;;;;;;;;;;26.50;99.10;;;;;;5098534;28;20052;-54
2022/08/23 11:09:57;;;;;;;8.15;2.70;;;26.60;98.70;;;;;;5098245;28;19920;-53
2022/08/23 11:12:31;;;;;;;6.25;2.78;;;26.80;98.40;;;;;;5099095;28;20048;-53
2022/08/23 11:15:02;;;;;;;6.13;2.90;;;26.90;99.10;;;;;;5098169;28;20086;-54
2022/08/23 11:17:42;;;;;;;10.80;3.17;;;26.90;99.50;;;;;;5095093;28;20399;-54
2022/08/23 11:20:11;;;;;;;6.35;2.80;;;27.00;98.90;;;;;;5081140;28;20048;-53
2022/08/23 11:22:55;;;;;;;7.82;3.00;;;27.00;99.40;;;;;;5081546;28;20079;-53
2022/08/23 11:25:21;;;;;;;6.95;2.85;;;27.10;98.50;;;;;;5080456;28;20040;-53
2022/08/23 11:27:48;;;;;;;6.05;2.70;;;27.10;98.50;;;;;;5080744;28;20109;-55
2022/08/23 11:30:36;;;;;;;8.32;2.80;;;27.20;99.50;;;;;;5081825;28;20044;-54
2022/08/23 11:33:14;;;;;;;9.02;3.42;;;27.30;98.70;;;;;;5080822;28;20047;-54
2022/08/23 11:36:23;;;;;;;7.55;2.90;;;27.20;98.40;;;;;;5080300;28;20049;-53
2022/08/23 11:38:49;;;;;;;5.97;2.78;;;27.30;98.00;;;;;;5093726;28;20067;-55
2022/08/23 11:41:17;;;;;;;5.63;2.65;;;27.30;98.10;;;;;;5099844;28;20040;-52
2022/08/23 11:44:04;;;;;;;7.72;2.85;;;27.30;97.90;;;;;;5100706;28;20047;-53
2022/08/23 11:46:54;;;;;;;6.80;2.67;;;27.40;97.60;;;;;;5101060;28;20055;-54
2022/08/23 11:49:29;;;;;;;7.15;2.80;;;27.50;97.40;;;;;;5080111;28;20076;-54
2022/08/23 11:52:16;;;;;;;7.07;2.53;;;27.60;97.30;;;;;;5090833;28;20048;-53
2022/08/23 11:55:22;;;;;;;6.57;2.60;;;27.60;96.60;;;;;;5091240;28;20047;-52
2022/08/23 11:58:14;;;;;;;11.80;3.25;;;27.60;96.90;;;;;;5090866;28;20395;-53
2022/08/23 12:01:07;;;;;;;7.43;2.50;;;27.60;96.70;;;;;;5090814;28;20119;-54
2022/08/23 12:04:04;;;;;;;8.48;3.05;;;27.70;97.10;;;;;;5091874;28;20048;-54
2022/08/23 12:06:56;;;;;;;5.82;2.42;;;27.50;96.50;;;;;;5085313;28;20063;-55
2022/08/23 12:09:22;;;;;;;7.85;2.88;;;27.50;96.70;;;;;;5087806;28;20110;-54
2022/08/23 12:11:53;;;;;;;7.13;2.65;;;27.50;96.80;;;;;;5089715;28;20047;-55
2022/08/23 12:14:31;;;;;;;;;;;27.50;96.70;;;;;;5086703;28;20129;-53
2022/08/23 12:17:15;;;;;;;6.50;2.67;;;27.40;97.30;;;;;;5092488;28;19924;-53
2022/08/23 12:20:09;;;;;;;8.15;2.97;;;27.30;96.90;;;;;;5090101;28;20063;-54
2022/08/23 12:23:01;;;;;;;9.48;3.33;;;27.20;96.90;;;;;;5093134;28;20036;-53
2022/08/23 12:25:30;;;;;;;7.22;2.90;;;27.20;97.10;;;;;;5092828;28;20051;-52
2022/08/23 12:28:02;;;;;;;7.60;2.88;;;27.20;97.30;;;;;;5089766;28;20048;-53
2022/08/23 12:30:47;;;;;;;7.95;3.45;;;27.30;96.80;;;;;;5090229;28;20558;-54
2022/08/23 12:33:54;;;;;;;8.50;3.20;;;27.50;96.30;;;;;;5090780;28;20032;-53
2022/08/23 12:37:06;;;;;;;8.77;2.85;;;27.40;97.00;;;;;;5083200;28;20441;-53
2022/08/23 12:39:38;;;;;;;7.88;2.50;;;27.50;97.30;;;;;;5088823;28;20123;-54
2022/08/23 12:42:14;;;;;;;8.30;2.67;;;27.30;97.00;;;;;;5080570;28;20062;-52
2022/08/23 12:44:42;;;;;;;6.57;2.63;;;27.20;97.10;;;;;;5079407;28;20043;-54
2022/08/23 12:47:15;;;;;;;7.97;2.55;;;27.20;97.10;;;;;;5080596;28;20048;-54
2022/08/23 12:49:41;;;;;;;8.77;3.08;;;27.40;96.50;;;;;;5079390;28;20047;-53
2022/08/23 12:52:10;;;;;;;9.05;3.00;;;27.50;96.20;;;;;;5080160;28;20060;-53
2022/08/23 12:54:48;;;;;;;9.85;3.30;;;27.60;96.60;;;;;;5079982;28;20055;-52
2022/08/23 12:57:18;;;;;;;6.13;2.63;;;27.70;95.80;;;;;;5079221;28;20458;-53
2022/08/23 12:59:44;;;;;;;6.35;2.80;;;27.80;95.40;;;;;;5080162;28;20044;-53
2022/08/23 13:02:26;;;;;;;5.88;2.58;;;27.80;94.90;;;;;;5078308;28;20041;-54
2022/08/23 13:04:57;;;;;;;6.43;2.63;;;27.80;95.70;;;;;;5079788;28;20048;-53
2022/08/23 13:07:25;;;;;;;7.22;2.40;;;27.90;95.00;;;;;;5079054;28;20037;-53